Time;durP1;ratioP1;P1;durP2;ratioP2;P2;SDS_P1;SDS_P2;PMS_P1;PMS_P2;Temp;Humidity;BMP_temperature;BMP_pressure;BME280_temperature;BME280_humidity;BME280_pressure;Samples;Min_cycle;Max_cycle;Signal;HPM_P1;HPM_P2
2021/07/14 00:02:00;;;;;;;19.50;13.43;;;26.10;62.10;;;;;;5034427;28;20025;-80
2021/07/14 00:04:26;;;;;;;15.95;13.65;;;26.10;62.30;;;;;;5034549;28;20482;-80
2021/07/14 00:06:52;;;;;;;21.90;13.98;;;26.00;62.50;;;;;;5034507;28;20017;-78
2021/07/14 00:09:19;;;;;;;18.23;13.18;;;26.00;62.80;;;;;;4999990;28;20496;-81
2021/07/14 00:11:53;;;;;;;;;;;26.00;62.80;;;;;;5033465;28;20097;-80
2021/07/14 00:22:23;;;;;;;23.42;13.25;;;25.80;63.30;;;;;;5034415;28;20126;-79
2021/07/14 00:24:49;;;;;;;19.35;14.27;;;25.80;63.40;;;;;;5034433;28;20052;-79
2021/07/14 00:27:15;;;;;;;15.68;13.52;;;25.80;63.40;;;;;;5034127;28;20037;-79
2021/07/14 00:29:49;;;;;;;15.65;12.95;;;25.80;63.30;;;;;;5036279;28;20509;-79
2021/07/14 00:32:16;;;;;;;18.67;14.25;;;25.70;63.30;;;;;;5045899;28;20026;-79
2021/07/14 00:34:42;;;;;;;18.35;14.00;;;25.70;63.60;;;;;;5044543;28;20085;-79
2021/07/14 00:37:08;;;;;;;20.15;15.30;;;25.70;63.60;;;;;;5040272;28;20057;-78
2021/07/14 00:39:35;;;;;;;19.63;14.15;;;25.60;63.60;;;;;;5034368;28;20112;-80
2021/07/14 00:42:01;;;;;;;17.52;14.13;;;25.70;63.90;;;;;;5034343;28;20064;-80
2021/07/14 00:44:27;;;;;;;18.42;13.98;;;25.60;64.00;;;;;;5033826;28;20042;-80
2021/07/14 00:46:53;;;;;;;18.17;15.25;;;25.60;64.10;;;;;;5016396;28;20014;-79
2021/07/14 00:49:19;;;;;;;18.80;15.30;;;25.60;64.30;;;;;;5033837;28;20033;-80
2021/07/14 00:51:46;;;;;;;19.10;14.88;;;25.60;64.50;;;;;;5032773;28;20072;-81
2021/07/14 00:54:13;;;;;;;16.58;14.63;;;25.60;64.40;;;;;;5015938;28;20027;-81
2021/07/14 00:56:40;;;;;;;18.88;15.27;;;25.60;64.50;;;;;;5033786;28;20017;-79
2021/07/14 00:59:06;;;;;;;22.33;15.45;;;25.60;64.50;;;;;;5034296;28;20083;-79
2021/07/14 01:01:32;;;;;;;20.23;15.02;;;25.60;64.30;;;;;;5033734;28;20028;-80
2021/07/14 01:04:19;;;;;;;17.50;14.18;;;25.60;64.40;;;;;;5033383;28;20043;-80
2021/07/14 01:06:57;;;;;;;16.95;14.23;;;;;;;;;;5012304;28;20057;-79
2021/07/14 01:09:38;;;;;;;21.25;15.00;;;;;;;;;;5033223;28;20387;-80
2021/07/14 01:12:11;;;;;;;17.83;14.88;;;25.60;64.40;;;;;;5028106;28;20029;-81
2021/07/14 01:14:47;;;;;;;19.80;15.38;;;25.40;64.60;;;;;;5033162;28;20041;-80
2021/07/14 01:17:17;;;;;;;21.00;14.27;;;25.40;64.80;;;;;;5033203;28;20063;-80
2021/07/14 01:20:04;;;;;;;18.27;15.50;;;25.40;65.00;;;;;;5033424;28;20037;-81
2021/07/14 01:22:46;;;;;;;17.08;14.38;;;25.40;64.90;;;;;;5033507;28;20352;-80
2021/07/14 01:25:37;;;;;;;18.90;14.15;;;25.30;64.80;;;;;;5033221;28;20021;-79
2021/07/14 01:28:05;;;;;;;18.58;15.40;;;25.30;64.70;;;;;;5021700;28;20518;-79
2021/07/14 01:30:31;;;;;;;;;;;25.30;65.10;;;;;;5043382;28;20033;-79
2021/07/14 01:33:01;;;;;;;20.17;14.25;;;25.20;64.30;;;;;;5037568;28;19904;-79
2021/07/14 01:35:31;;;;;;;18.88;14.82;;;25.20;66.30;;;;;;5018697;28;20024;-79
2021/07/14 01:37:58;;;;;;;16.80;13.77;;;;;;;;;;5025921;28;20466;-79
2021/07/14 01:40:24;;;;;;;19.95;14.35;;;;;;;;;;5032627;28;20075;-79
2021/07/14 01:42:57;;;;;;;16.03;14.43;;;;;;;;;;5032665;28;20029;-78
2021/07/14 01:45:29;;;;;;;15.82;13.90;;;;;;;;;;5034380;28;20025;-79
2021/07/14 01:47:55;;;;;;;22.58;13.93;;;;;;;;;;5031026;28;20375;-80
2021/07/14 01:50:23;;;;;;;20.40;14.18;;;;;;;;;;5032788;28;20029;-80
2021/07/14 01:52:48;;;;;;;;;;;;;;;;;;5033117;28;20032;-79
2021/07/14 01:55:15;;;;;;;21.60;14.10;;;;;;;;;;5032739;28;20362;-79
2021/07/14 01:57:42;;;;;;;15.35;12.77;;;;;;;;;;5032306;28;20029;-79
2021/07/14 02:00:09;;;;;;;17.00;13.52;;;;;;;;;;5032540;28;20029;-79
2021/07/14 02:02:38;;;;;;;16.73;13.07;;;;;;;;;;5033682;28;20079;-79
2021/07/14 02:05:07;;;;;;;17.67;13.32;;;;;;;;;;5031090;28;20083;-79
2021/07/14 02:07:35;;;;;;;16.58;12.93;;;;;;;;;;5032203;28;20029;-79
2021/07/14 02:10:02;;;;;;;15.65;13.23;;;25.20;66.30;;;;;;5032076;28;20049;-81
2021/07/14 02:12:32;;;;;;;25.33;13.30;;;25.30;65.80;;;;;;5032341;28;20072;-79
2021/07/14 02:15:02;;;;;;;15.10;13.52;;;25.30;65.50;;;;;;5031815;28;20046;-79
2021/07/14 02:17:32;;;;;;;14.68;12.90;;;25.40;65.30;;;;;;5032379;28;20506;-81
2021/07/14 02:20:11;;;;;;;19.00;12.98;;;25.40;65.10;;;;;;5032319;28;20040;-79
2021/07/14 02:22:38;;;;;;;15.32;13.73;;;25.50;65.10;;;;;;5032635;28;20049;-80
2021/07/14 02:25:06;;;;;;;14.30;12.90;;;25.40;65.00;;;;;;5032789;28;20057;-79
2021/07/14 02:27:32;;;;;;;14.55;13.13;;;25.40;65.70;;;;;;5032685;28;20079;-79
2021/07/14 02:29:58;;;;;;;17.95;13.65;;;25.40;65.20;;;;;;5032372;28;20060;-80
2021/07/14 02:32:24;;;;;;;15.73;14.13;;;25.40;65.20;;;;;;5032208;28;20033;-79
2021/07/14 02:34:53;;;;;;;15.32;13.68;;;25.50;65.10;;;;;;5032159;28;20017;-80
2021/07/14 02:37:31;;;;;;;16.90;14.05;;;25.50;65.00;;;;;;5031649;28;20022;-79
2021/07/14 02:40:00;;;;;;;18.75;13.95;;;25.50;64.90;;;;;;5014451;28;20029;-79
2021/07/14 02:42:30;;;;;;;16.25;13.32;;;25.60;64.90;;;;;;5031693;28;20390;-79
2021/07/14 02:45:01;;;;;;;19.90;14.70;;;25.60;64.90;;;;;;5032206;28;20479;-79
2021/07/14 02:47:41;;;;;;;15.85;13.90;;;25.70;64.90;;;;;;5031788;28;20067;-79
2021/07/14 02:50:16;;;;;;;17.48;13.70;;;25.70;64.60;;;;;;5014206;28;20026;-79
2021/07/14 02:52:47;;;;;;;17.77;14.00;;;25.80;64.60;;;;;;5029878;28;20033;-79
2021/07/14 02:55:17;;;;;;;22.30;14.55;;;25.80;64.50;;;;;;5032033;28;20488;-78
2021/07/14 02:57:44;;;;;;;17.90;13.82;;;25.80;64.30;;;;;;5031688;28;20023;-79
2021/07/14 03:00:10;;;;;;;15.43;13.90;;;25.90;64.50;;;;;;5031733;28;20036;-80
2021/07/14 03:02:39;;;;;;;16.17;13.80;;;25.90;64.30;;;;;;5032947;28;20036;-80
2021/07/14 03:05:06;;;;;;;14.63;13.00;;;26.10;64.30;;;;;;5032007;28;20018;-79
2021/07/14 03:07:32;;;;;;;15.82;14.23;;;26.20;63.70;;;;;;5032077;28;20104;-79
2021/07/14 03:09:59;;;;;;;17.42;14.40;;;26.20;63.10;;;;;;5032777;28;20022;-80
2021/07/14 03:12:26;;;;;;;18.23;15.13;;;26.30;63.00;;;;;;5032238;28;20394;-80
2021/07/14 03:14:57;;;;;;;15.45;13.95;;;26.30;62.70;;;;;;5031468;28;20049;-80
2021/07/14 03:17:24;;;;;;;17.00;14.98;;;26.50;62.60;;;;;;5031750;28;20028;-79
2021/07/14 03:19:52;;;;;;;18.75;15.15;;;26.50;62.30;;;;;;5031516;28;20037;-79
2021/07/14 03:22:21;;;;;;;19.65;13.40;;;26.60;61.80;;;;;;5031704;28;20021;-80
2021/07/14 03:24:48;;;;;;;16.25;13.90;;;26.60;61.80;;;;;;5013853;28;20029;-80
2021/07/14 03:27:15;;;;;;;25.02;15.38;;;26.70;61.60;;;;;;5034763;28;20573;-80
2021/07/14 03:29:42;;;;;;;;;;;26.80;61.30;;;;;;5035938;28;20037;-80
2021/07/14 03:32:10;;;;;;;16.17;14.48;;;26.80;61.10;;;;;;5035588;28;20310;-81
2021/07/14 03:34:37;;;;;;;16.13;14.43;;;26.80;61.10;;;;;;5014311;28;20022;-80
2021/07/14 03:37:06;;;;;;;;;;;26.90;60.80;;;;;;5028619;28;20112;-80
2021/07/14 03:39:35;;;;;;;15.93;14.43;;;27.00;60.60;;;;;;5034767;28;19940;-80
2021/07/14 03:42:02;;;;;;;17.20;14.85;;;27.10;60.30;;;;;;5017301;28;20447;-81
2021/07/14 03:44:29;;;;;;;16.88;14.77;;;27.20;60.30;;;;;;5035219;28;20429;-80
2021/07/14 03:46:57;;;;;;;16.50;14.32;;;27.30;60.10;;;;;;5035053;28;20506;-80
2021/07/14 03:49:23;;;;;;;18.58;15.15;;;27.40;59.70;;;;;;5032449;28;20033;-80
2021/07/14 03:51:50;;;;;;;20.38;13.93;;;27.50;59.30;;;;;;5028752;28;20044;-77
2021/07/14 03:54:17;;;;;;;18.20;14.55;;;27.50;59.20;;;;;;5034523;28;20026;-80
2021/07/14 03:56:43;;;;;;;21.48;13.75;;;27.60;59.10;;;;;;5034798;28;20022;-80
2021/07/14 03:59:09;;;;;;;16.88;14.77;;;27.70;59.00;;;;;;5034469;28;20034;-81
2021/07/14 04:01:36;;;;;;;19.17;13.90;;;27.70;59.10;;;;;;5034426;28;20030;-80
2021/07/14 04:04:03;;;;;;;16.13;14.40;;;27.80;59.10;;;;;;5016985;28;20026;-81
2021/07/14 04:06:34;;;;;;;19.63;15.05;;;27.90;59.30;;;;;;5034634;28;20068;-80
2021/07/14 04:09:11;;;;;;;16.42;13.82;;;28.00;58.80;;;;;;5033468;28;20021;-82
2021/07/14 04:11:39;;;;;;;17.27;13.95;;;28.10;58.80;;;;;;5026091;28;20049;-80
2021/07/14 04:14:05;;;;;;;20.90;14.63;;;28.20;58.90;;;;;;5034088;28;20061;-80
2021/07/14 04:16:30;;;;;;;20.10;14.15;;;28.30;58.50;;;;;;5034396;28;20025;-80
2021/07/14 04:18:56;;;;;;;18.85;14.18;;;28.40;58.70;;;;;;5013058;28;20533;-80
2021/07/14 04:21:22;;;;;;;16.05;14.35;;;28.50;58.40;;;;;;5024909;28;20025;-80
2021/07/14 04:23:48;;;;;;;20.38;14.43;;;28.50;57.90;;;;;;5033959;28;20101;-79
2021/07/14 04:26:14;;;;;;;20.55;14.55;;;28.60;57.70;;;;;;5016200;28;20111;-79
2021/07/14 04:28:39;;;;;;;18.50;12.85;;;28.70;58.00;;;;;;5034219;28;20462;-79
2021/07/14 04:31:05;;;;;;;19.08;13.85;;;28.80;57.20;;;;;;5015859;28;20025;-80
2021/07/14 04:33:31;;;;;;;21.00;12.93;;;28.90;56.60;;;;;;5034158;28;20375;-81
2021/07/14 04:35:58;;;;;;;22.45;14.32;;;29.00;56.90;;;;;;5033867;28;20125;-81
2021/07/14 04:38:24;;;;;;;24.10;14.15;;;29.10;56.60;;;;;;5032644;28;20034;-80
2021/07/14 04:40:50;;;;;;;22.65;15.25;;;29.20;56.20;;;;;;5033793;28;20540;-80
2021/07/14 04:43:16;;;;;;;22.27;13.73;;;29.20;56.10;;;;;;5033953;28;20104;-81
2021/07/14 04:45:42;;;;;;;18.85;14.27;;;29.30;55.60;;;;;;5033522;28;20052;-80
2021/07/14 04:48:07;;;;;;;20.63;13.95;;;29.40;55.50;;;;;;5033518;28;20040;-81
2021/07/14 04:50:34;;;;;;;20.75;14.48;;;29.40;55.40;;;;;;5033608;28;20348;-80
2021/07/14 04:52:59;;;;;;;18.45;14.65;;;29.50;55.20;;;;;;5033498;28;20494;-81
2021/07/14 04:55:25;;;;;;;16.75;14.30;;;29.60;54.70;;;;;;5034048;28;20037;-80
2021/07/14 04:57:51;;;;;;;19.17;14.75;;;29.60;55.00;;;;;;5033800;28;20112;-81
2021/07/14 05:00:17;;;;;;;18.55;14.32;;;29.50;54.50;;;;;;5033474;28;20037;-81
2021/07/14 05:02:46;;;;;;;23.45;13.48;;;29.50;54.80;;;;;;5033754;28;20060;-81
2021/07/14 05:05:14;;;;;;;17.65;14.32;;;29.50;54.50;;;;;;5033435;28;20352;-79
2021/07/14 05:07:40;;;;;;;17.08;13.68;;;29.60;54.40;;;;;;5033390;28;20025;-82
2021/07/14 05:10:07;;;;;;;19.75;13.30;;;29.70;53.60;;;;;;5033450;28;20493;-80
2021/07/14 05:12:33;;;;;;;;;;;30.00;53.90;;;;;;5016991;28;20064;-80
2021/07/14 05:14:58;;;;;;;21.67;14.10;;;30.50;54.60;;;;;;5033250;28;19917;-80
2021/07/14 05:17:24;;;;;;;21.88;13.93;;;31.30;52.00;;;;;;5038860;28;20493;-82
2021/07/14 05:19:53;;;;;;;18.43;14.10;;;32.20;49.80;;;;;;5033242;28;20038;-81
2021/07/14 05:22:20;;;;;;;16.35;12.77;;;33.10;48.10;;;;;;5032997;28;20019;-81
2021/07/14 05:24:45;;;;;;;15.80;11.20;;;33.90;46.30;;;;;;5033386;28;20022;-81
2021/07/14 05:27:11;;;;;;;21.53;12.83;;;34.70;45.10;;;;;;5015279;28;20552;-82
2021/07/14 05:29:37;;;;;;;15.20;11.90;;;;;;;;;;5015278;28;20123;-83
2021/07/14 05:32:05;;;;;;;15.38;11.02;;;35.20;43.90;;;;;;5033372;28;20089;-81
2021/07/14 05:34:32;;;;;;;14.55;9.90;;;36.70;41.50;;;;;;5015483;28;20119;-82
2021/07/14 05:36:58;;;;;;;15.23;11.23;;;37.10;40.40;;;;;;5035378;28;20100;-80
2021/07/14 05:39:24;;;;;;;17.30;11.68;;;37.60;39.70;;;;;;5038297;28;20114;-81
2021/07/14 05:41:50;;;;;;;15.35;10.32;;;38.10;38.70;;;;;;5026828;28;20030;-82
2021/07/14 05:44:16;;;;;;;14.13;9.95;;;38.70;37.80;;;;;;5046510;28;20052;-81
2021/07/14 05:46:44;;;;;;;15.57;9.93;;;38.90;36.90;;;;;;5026702;28;20053;-80
2021/07/14 05:49:10;;;;;;;11.25;8.82;;;39.20;36.20;;;;;;5014928;28;20025;-81
2021/07/14 05:51:35;;;;;;;10.55;9.45;;;39.40;36.10;;;;;;5031436;28;20032;-81
2021/07/14 05:54:02;;;;;;;17.20;9.65;;;39.70;35.90;;;;;;5033426;28;20040;-82
2021/07/14 05:56:27;;;;;;;;;;;40.00;35.90;;;;;;5015583;28;20041;-81
2021/07/14 05:58:54;;;;;;;14.48;9.30;;;40.50;36.50;;;;;;5014968;28;20448;-81
2021/07/14 06:01:20;;;;;;;;;;;40.70;33.50;;;;;;5014027;28;20510;-80
2021/07/14 06:03:47;;;;;;;9.45;8.40;;;41.00;35.10;;;;;;5032419;28;19961;-80
2021/07/14 06:06:14;;;;;;;8.90;7.95;;;41.10;32.70;;;;;;5032674;28;20080;-81
2021/07/14 06:08:40;;;;;;;11.45;9.05;;;41.10;32.80;;;;;;5032446;28;20022;-79
2021/07/14 06:11:06;;;;;;;;;;;41.20;32.90;;;;;;5031244;28;20032;-80
2021/07/14 06:13:32;;;;;;;18.17;8.02;;;41.70;33.80;;;;;;5031908;28;19921;-81
2021/07/14 06:15:58;;;;;;;11.82;9.00;;;42.60;31.70;;;;;;5032310;28;20097;-80
2021/07/14 06:18:24;;;;;;;12.73;7.90;;;43.40;31.20;;;;;;5031909;28;20132;-79
2021/07/14 06:20:50;;;;;;;16.05;9.40;;;44.00;30.40;;;;;;5032312;28;20021;-83
2021/07/14 06:23:16;;;;;;;;;;;44.60;30.00;;;;;;5021450;28;20025;-82
2021/07/14 06:25:42;;;;;;;18.73;8.40;;;45.20;31.00;;;;;;5029421;28;19931;-81
2021/07/14 06:28:12;;;;;;;10.48;7.60;;;45.50;29.40;;;;;;5032068;28;20021;-79
2021/07/14 06:30:39;;;;;;;8.63;7.72;;;45.70;29.00;;;;;;5030764;28;20489;-80
2021/07/14 06:33:05;;;;;;;11.70;8.23;;;46.00;28.60;;;;;;5034728;28;20018;-81
2021/07/14 06:35:32;;;;;;;;;;;45.70;28.70;;;;;;5032486;28;20052;-82
2021/07/14 06:37:58;;;;;;;13.95;7.95;;;45.70;29.50;;;;;;5014104;28;20420;-79
2021/07/14 06:40:24;;;;;;;12.18;7.65;;;45.70;28.80;;;;;;5029972;28;20483;-80
2021/07/14 06:42:50;;;;;;;9.10;7.55;;;46.00;28.70;;;;;;5031556;28;20037;-78
2021/07/14 06:45:16;;;;;;;13.13;6.68;;;46.30;28.40;;;;;;5031733;28;20021;-78
2021/07/14 06:47:43;;;;;;;9.20;6.32;;;46.00;28.30;;;;;;5031101;28;20426;-78
2021/07/14 06:50:11;;;;;;;9.90;5.70;;;46.20;28.10;;;;;;5013797;28;20076;-78
2021/07/14 06:52:39;;;;;;;6.40;5.70;;;46.30;27.60;;;;;;5013768;28;20060;-78
2021/07/14 06:55:06;;;;;;;9.32;6.63;;;46.20;27.70;;;;;;5031524;28;20418;-79
2021/07/14 06:57:32;;;;;;;6.95;5.50;;;45.70;27.80;;;;;;5031814;28;20502;-78
2021/07/14 06:59:58;;;;;;;7.97;7.10;;;45.70;27.90;;;;;;5031702;28;20041;-78
2021/07/14 07:02:24;;;;;;;8.32;5.72;;;46.20;27.90;;;;;;5035781;28;20022;-82
2021/07/14 07:04:49;;;;;;;8.70;6.05;;;46.80;27.50;;;;;;5035513;28;20025;-79
2021/07/14 07:07:15;;;;;;;7.93;5.32;;;47.20;27.80;;;;;;5035372;28;20053;-77
2021/07/14 07:09:44;;;;;;;9.48;5.97;;;47.00;27.50;;;;;;5035553;28;20534;-79
2021/07/14 07:12:10;;;;;;;7.47;5.53;;;47.00;27.10;;;;;;5035415;28;20033;-77
2021/07/14 07:14:36;;;;;;;8.63;5.95;;;46.40;27.00;;;;;;5035166;28;20046;-78
2021/07/14 07:17:02;;;;;;;7.30;5.40;;;46.80;27.20;;;;;;5034875;28;20021;-79
2021/07/14 07:19:28;;;;;;;6.68;6.05;;;47.00;27.20;;;;;;5035010;28;20472;-79
2021/07/14 07:21:54;;;;;;;7.70;5.65;;;47.50;26.80;;;;;;5017431;28;20125;-80
2021/07/14 07:24:19;;;;;;;7.10;6.30;;;48.50;26.50;;;;;;5035743;28;20041;-78
2021/07/14 07:26:47;;;;;;;8.32;5.60;;;49.20;26.30;;;;;;5035568;28;20117;-78
2021/07/14 07:29:13;;;;;;;7.22;5.72;;;49.60;26.00;;;;;;5034932;28;20440;-78
2021/07/14 07:31:40;;;;;;;7.38;5.82;;;49.60;25.80;;;;;;5034929;28;20122;-79
2021/07/14 07:34:06;;;;;;;7.75;5.97;;;49.70;25.90;;;;;;5034649;28;20486;-79
2021/07/14 07:36:32;;;;;;;6.97;5.82;;;49.40;25.90;;;;;;5035283;28;20029;-77
2021/07/14 07:38:58;;;;;;;8.43;5.80;;;49.30;26.40;;;;;;5034186;28;20045;-78
2021/07/14 07:41:25;;;;;;;8.50;5.43;;;49.60;25.90;;;;;;5035043;28;20037;-78
2021/07/14 07:43:53;;;;;;;10.25;5.65;;;49.40;25.50;;;;;;5035106;28;20474;-80
2021/07/14 07:46:19;;;;;;;11.55;5.40;;;49.30;25.50;;;;;;5019192;28;20125;-77
2021/07/14 07:48:45;;;;;;;5.55;4.57;;;49.70;26.10;;;;;;5036063;28;20087;-78
2021/07/14 07:51:11;;;;;;;6.15;5.55;;;49.60;25.50;;;;;;5034216;28;20025;-78
2021/07/14 07:53:39;;;;;;;7.18;6.25;;;47.80;25.60;;;;;;5034503;28;20021;-78
2021/07/14 07:56:05;;;;;;;10.10;6.03;;;45.90;26.80;;;;;;5034414;28;20036;-78
2021/07/14 07:58:34;;;;;;;11.38;7.00;;;43.80;27.90;;;;;;5034365;28;20025;-78
2021/07/14 08:01:01;;;;;;;8.10;6.75;;;41.90;29.30;;;;;;5034360;28;20026;-78
2021/07/14 08:03:27;;;;;;;11.25;6.80;;;40.50;30.50;;;;;;5016744;28;20021;-80
2021/07/14 08:05:52;;;;;;;10.02;7.60;;;39.30;32.00;;;;;;5034342;28;20473;-78
2021/07/14 08:08:19;;;;;;;8.70;7.65;;;38.00;33.50;;;;;;5029980;28;20030;-78
2021/07/14 08:10:45;;;;;;;;;;;37.20;34.80;;;;;;5025260;28;20110;-78
2021/07/14 08:13:11;;;;;;;;;;;38.00;34.60;;;;;;5033835;28;19960;-79
2021/07/14 08:15:37;;;;;;;;;;;38.70;33.80;;;;;;5034642;28;19905;-80
2021/07/14 08:18:04;;;;;;;17.65;9.20;;;40.20;33.50;;;;;;5034108;28;19905;-79
2021/07/14 08:20:30;;;;;;;13.07;7.50;;;42.40;31.60;;;;;;5034220;28;20031;-77
2021/07/14 08:22:56;;;;;;;7.00;6.30;;;44.40;29.90;;;;;;5033845;28;20021;-79
2021/07/14 08:25:23;;;;;;;9.10;6.20;;;45.10;28.90;;;;;;5033753;28;20025;-79
2021/07/14 08:27:49;;;;;;;7.18;6.05;;;45.70;28.10;;;;;;5033693;28;20024;-78
2021/07/14 08:30:16;;;;;;;12.15;6.85;;;45.10;28.50;;;;;;5033806;28;20493;-78
2021/07/14 08:32:42;;;;;;;8.90;6.72;;;43.60;28.60;;;;;;5033549;28;20021;-79
2021/07/14 08:35:10;;;;;;;8.20;6.60;;;43.90;28.80;;;;;;5033457;28;20159;-79
2021/07/14 08:37:36;;;;;;;9.05;6.40;;;44.80;28.50;;;;;;5033614;28;20100;-79
2021/07/14 08:40:05;;;;;;;12.85;6.60;;;46.50;27.70;;;;;;5033854;28;20065;-79
2021/07/14 08:42:35;;;;;;;7.35;6.65;;;47.90;26.80;;;;;;5015736;28;20021;-79
2021/07/14 08:45:06;;;;;;;9.25;6.32;;;48.40;26.40;;;;;;5034015;28;20025;-78
2021/07/14 08:47:33;;;;;;;6.60;5.97;;;48.90;26.10;;;;;;5033327;28;20036;-78
2021/07/14 08:50:00;;;;;;;8.95;6.57;;;48.10;26.00;;;;;;5033708;28;20053;-79
2021/07/14 08:52:25;;;;;;;10.18;7.10;;;47.40;26.20;;;;;;5033463;28;20495;-78
2021/07/14 08:54:52;;;;;;;8.85;6.18;;;45.90;26.70;;;;;;5033513;28;20079;-78
2021/07/14 08:57:19;;;;;;;8.80;5.93;;;44.40;27.20;;;;;;5015494;28;20034;-80
2021/07/14 08:59:46;;;;;;;6.50;5.50;;;44.40;27.60;;;;;;5033261;28;20099;-79
2021/07/14 09:02:13;;;;;;;6.50;5.40;;;45.90;27.40;;;;;;5033316;28;20093;-78
2021/07/14 09:04:39;;;;;;;9.70;5.75;;;47.40;26.30;;;;;;5033010;28;20056;-80
2021/07/14 09:07:06;;;;;;;7.97;5.95;;;47.70;25.80;;;;;;5033150;28;20471;-78
2021/07/14 09:09:34;;;;;;;6.97;5.53;;;46.90;25.90;;;;;;5033238;28;20116;-79
2021/07/14 09:12:01;;;;;;;6.82;4.65;;;47.40;25.80;;;;;;5033084;28;20028;-79
2021/07/14 09:14:33;;;;;;;7.88;5.00;;;48.40;26.00;;;;;;5032872;28;20057;-79
2021/07/14 09:17:24;;;;;;;7.65;5.40;;;49.30;25.30;;;;;;5032882;28;20013;-79
2021/07/14 09:19:52;;;;;;;5.90;5.30;;;49.30;24.80;;;;;;5032764;28;20030;-80
2021/07/14 09:22:25;;;;;;;6.43;4.93;;;49.40;25.30;;;;;;5014997;28;20487;-78
2021/07/14 09:24:56;;;;;;;6.65;5.07;;;49.50;24.80;;;;;;5032209;28;20032;-79
2021/07/14 09:27:35;;;;;;;6.45;4.95;;;49.70;24.60;;;;;;5032512;28;20071;-78
2021/07/14 09:30:08;;;;;;;8.85;6.80;;;49.80;25.10;;;;;;5032300;28;20103;-79
2021/07/14 09:32:54;;;;;;;5.50;5.00;;;48.60;24.80;;;;;;5011668;28;20479;-78
2021/07/14 09:35:36;;;;;;;7.90;5.15;;;48.60;25.10;;;;;;5026254;28;20389;-80
2021/07/14 09:38:08;;;;;;;6.72;5.05;;;49.20;25.10;;;;;;5014985;28;20018;-78
2021/07/14 09:40:34;;;;;;;8.73;5.13;;;50.00;24.50;;;;;;5014977;28;20227;-80
2021/07/14 09:43:10;;;;;;;6.15;4.53;;;50.00;24.20;;;;;;5032425;28;20148;-79
2021/07/14 09:45:39;;;;;;;5.43;4.20;;;50.20;24.10;;;;;;5032320;28;20374;-79
2021/07/14 09:48:07;;;;;;;4.85;4.35;;;50.50;24.00;;;;;;5014687;28;20386;-79
2021/07/14 09:50:39;;;;;;;8.77;4.75;;;50.80;23.80;;;;;;5032484;28;20024;-78
2021/07/14 09:53:11;;;;;;;6.00;5.38;;;51.00;24.10;;;;;;5032403;28;20496;-79
2021/07/14 09:55:38;;;;;;;6.45;5.28;;;49.50;24.50;;;;;;5032612;28;20063;-79
2021/07/14 09:58:10;;;;;;;7.25;5.03;;;49.20;25.00;;;;;;5032268;28;20461;-79
2021/07/14 10:00:44;;;;;;;7.63;5.45;;;49.60;24.70;;;;;;5032125;28;20037;-77
2021/07/14 10:03:27;;;;;;;9.00;5.57;;;48.80;25.00;;;;;;5032136;28;20017;-80
2021/07/14 10:06:12;;;;;;;8.70;5.50;;;49.30;25.10;;;;;;5014423;28;20109;-78
2021/07/14 10:08:45;;;;;;;8.07;4.85;;;49.50;24.90;;;;;;5032354;28;20479;-80
2021/07/14 10:11:16;;;;;;;7.85;6.20;;;49.60;24.70;;;;;;5032121;28;20025;-77
2021/07/14 10:14:08;;;;;;;10.10;5.22;;;49.70;24.40;;;;;;5031706;28;20042;-78
2021/07/14 10:16:40;;;;;;;10.95;5.50;;;49.30;24.50;;;;;;5031931;28;20067;-80
2021/07/14 10:19:11;;;;;;;7.50;5.28;;;48.80;24.40;;;;;;5014465;28;20538;-78
2021/07/14 10:21:43;;;;;;;7.70;6.03;;;47.10;24.70;;;;;;5032123;28;20033;-79
2021/07/14 10:24:11;;;;;;;10.23;6.13;;;45.20;25.70;;;;;;5031707;28;20478;-79
2021/07/14 10:26:39;;;;;;;6.47;5.10;;;44.10;26.40;;;;;;5032110;28;20025;-78
2021/07/14 10:29:05;;;;;;;7.28;5.70;;;44.00;26.20;;;;;;5031728;28;20040;-80
2021/07/14 10:31:32;;;;;;;9.02;4.75;;;44.20;26.10;;;;;;5031870;28;20108;-80
2021/07/14 10:33:59;;;;;;;6.07;5.07;;;44.60;25.30;;;;;;5031571;28;20026;-78
2021/07/14 10:36:29;;;;;;;5.63;4.85;;;44.40;25.30;;;;;;5036442;28;20467;-78
2021/07/14 10:39:12;;;;;;;9.05;5.32;;;43.60;25.80;;;;;;5035735;28;20084;-80
2021/07/14 10:41:38;;;;;;;9.70;5.80;;;42.60;26.00;;;;;;5036551;28;20387;-77
2021/07/14 10:44:05;;;;;;;11.25;7.07;;;41.50;26.80;;;;;;5035974;28;20028;-80
2021/07/14 10:46:33;;;;;;;9.40;7.57;;;40.70;28.80;;;;;;5037427;28;20026;-79
2021/07/14 10:49:00;;;;;;;10.85;6.90;;;39.90;29.80;;;;;;5037781;28;20399;-79
2021/07/14 10:51:31;;;;;;;9.23;7.47;;;39.40;30.00;;;;;;5018951;28;20068;-79
2021/07/14 10:54:02;;;;;;;10.02;7.38;;;38.90;30.60;;;;;;5035778;28;20125;-80
2021/07/14 10:56:30;;;;;;;12.18;8.13;;;38.40;31.40;;;;;;5015023;28;20495;-80
2021/07/14 10:58:57;;;;;;;10.45;7.75;;;38.20;31.60;;;;;;5026893;28;20030;-78
2021/07/14 11:01:39;;;;;;;10.43;7.65;;;38.10;31.40;;;;;;5035417;28;20017;-80
2021/07/14 11:04:10;;;;;;;8.93;7.95;;;37.90;31.90;;;;;;5035609;28;20121;-79
2021/07/14 11:07:04;;;;;;;9.55;7.97;;;37.70;32.30;;;;;;5035224;28;20018;-79
2021/07/14 11:09:40;;;;;;;8.95;8.00;;;37.40;32.30;;;;;;5035432;28;20014;-79
2021/07/14 11:12:12;;;;;;;9.27;7.75;;;37.20;33.20;;;;;;5035609;28;20093;-80
2021/07/14 11:14:59;;;;;;;7.93;7.10;;;37.10;33.40;;;;;;5034863;28;20049;-80
2021/07/14 11:17:29;;;;;;;13.48;8.23;;;;;;;;;;5035654;28;20040;-79
2021/07/14 11:19:55;;;;;;;8.85;7.63;;;36.70;32.80;;;;;;5035380;28;20026;-79
2021/07/14 11:22:52;;;;;;;29.90;9.90;;;36.50;33.20;;;;;;5035163;28;20025;-80
2021/07/14 11:25:21;;;;;;;10.40;9.30;;;36.40;33.90;;;;;;5027024;28;20096;-79
2021/07/14 11:27:54;;;;;;;10.45;7.75;;;36.40;34.50;;;;;;5035074;28;20115;-78
2021/07/14 11:30:25;;;;;;;11.77;8.27;;;36.40;33.70;;;;;;5035104;28;20026;-79
2021/07/14 11:32:52;;;;;;;9.30;8.32;;;36.00;34.00;;;;;;5035431;28;20352;-78
2021/07/14 11:35:52;;;;;;;9.93;8.65;;;35.80;34.00;;;;;;5035225;28;20017;-79
2021/07/14 11:38:20;;;;;;;10.18;7.45;;;35.70;34.20;;;;;;5035126;28;20101;-78
2021/07/14 11:40:49;;;;;;;7.75;7.03;;;35.80;34.50;;;;;;5034462;28;20116;-79
2021/07/14 11:43:19;;;;;;;9.07;7.57;;;35.80;35.30;;;;;;5017296;28;20071;-79
2021/07/14 11:46:06;;;;;;;11.20;8.13;;;35.80;34.80;;;;;;5036348;28;20033;-78
2021/07/14 11:48:34;;;;;;;9.82;8.82;;;35.80;34.60;;;;;;5014194;28;20083;-82
2021/07/14 11:51:16;;;;;;;9.90;8.82;;;35.90;34.60;;;;;;5030784;28;20021;-78
2021/07/14 11:53:53;;;;;;;11.75;8.48;;;36.10;34.70;;;;;;5035562;28;20498;-79
2021/07/14 11:56:21;;;;;;;9.57;8.15;;;36.20;35.00;;;;;;5014310;28;20022;-78
2021/07/14 11:58:52;;;;;;;8.57;7.70;;;36.30;34.30;;;;;;5024531;28;20079;-79
2021/07/14 12:01:21;;;;;;;9.73;8.52;;;36.40;34.60;;;;;;5034674;28;20025;-79
2021/07/14 12:04:01;;;;;;;15.55;8.20;;;36.50;34.00;;;;;;5018297;28;20034;-80
2021/07/14 12:06:47;;;;;;;12.15;10.05;;;36.60;34.50;;;;;;5035370;28;20022;-79
2021/07/14 12:09:13;;;;;;;9.82;7.45;;;36.70;33.60;;;;;;5013445;28;20420;-79
2021/07/14 12:11:52;;;;;;;8.40;6.27;;;36.50;32.80;;;;;;5031911;28;20114;-79
2021/07/14 12:14:36;;;;;;;7.95;7.20;;;36.30;32.60;;;;;;5034311;28;20053;-77
2021/07/14 12:17:05;;;;;;;8.55;6.78;;;36.20;32.60;;;;;;5034142;28;20021;-79
2021/07/14 12:19:33;;;;;;;10.45;7.43;;;35.90;33.50;;;;;;5033831;28;20140;-77
2021/07/14 12:22:06;;;;;;;8.38;6.97;;;35.80;34.00;;;;;;5033885;28;20021;-78
2021/07/14 12:24:37;;;;;;;10.45;6.88;;;35.70;33.40;;;;;;5033950;28;20036;-79
2021/07/14 12:27:06;;;;;;;8.68;7.03;;;35.30;32.60;;;;;;5034017;28;20056;-79
2021/07/14 12:29:33;;;;;;;6.72;5.97;;;35.50;33.60;;;;;;5034008;28;20022;-78
2021/07/14 12:32:00;;;;;;;6.80;6.05;;;35.60;33.10;;;;;;5016261;28;20057;-81
2021/07/14 12:34:26;;;;;;;;;;;35.70;33.30;;;;;;5034386;28;20367;-78
2021/07/14 12:36:54;;;;;;;9.20;6.93;;;35.70;33.00;;;;;;5033955;28;19924;-80
2021/07/14 12:39:25;;;;;;;11.23;7.53;;;35.70;32.90;;;;;;5016223;28;20034;-80
2021/07/14 12:41:53;;;;;;;7.03;6.32;;;35.80;33.00;;;;;;5033739;28;20017;-79
2021/07/14 12:44:19;;;;;;;9.73;7.15;;;35.90;32.90;;;;;;5015962;28;20082;-79
2021/07/14 12:46:45;;;;;;;7.53;6.83;;;35.80;33.40;;;;;;5033903;28;20538;-79
2021/07/14 12:49:18;;;;;;;6.40;5.55;;;35.60;33.20;;;;;;5033699;28;20108;-79
2021/07/14 12:52:08;;;;;;;9.40;6.63;;;35.70;33.60;;;;;;5033648;28;20364;-78
2021/07/14 12:54:36;;;;;;;7.40;6.55;;;35.80;33.30;;;;;;5033383;28;20029;-78
2021/07/14 12:57:23;;;;;;;9.65;6.28;;;35.80;33.70;;;;;;5015837;28;20024;-79
2021/07/14 13:00:00;;;;;;;7.85;6.15;;;35.60;33.30;;;;;;5032663;28;20057;-78
2021/07/14 13:02:58;;;;;;;9.95;6.65;;;35.40;33.40;;;;;;5033718;28;20021;-81
2021/07/14 13:05:28;;;;;;;6.93;6.25;;;35.10;34.10;;;;;;5033291;28;20103;-78